createdAt,value
2022-10-22T12:32:15.366Z,17856.00
2022-10-22T12:33:15.349Z,13120.00
2022-10-22T12:35:25.702Z,28256.00
2022-10-22T12:36:25.679Z,42080.00
2022-10-22T12:37:25.706Z,31712.00
2022-10-22T12:38:25.648Z,17728.00
2022-10-22T12:39:25.629Z,28992.00
2022-10-22T12:40:25.621Z,10776.00
2022-10-22T13:09:46.159Z,7712.00
2022-10-22T13:12:22.031Z,9520.00
2022-10-22T13:13:22.003Z,11300.00
2022-10-22T13:14:21.989Z,8212.00
2022-10-22T13:16:17.685Z,8868.00
2022-10-22T13:17:17.708Z,9148.00
2022-10-22T13:18:17.684Z,9632.00
2022-10-22T13:30:13.866Z,12988.00
2022-10-22T13:31:13.834Z,16480.00
2022-10-22T13:32:13.827Z,16768.00
2022-10-22T13:33:13.819Z,14268.00
2022-10-22T13:34:16.410Z,13576.00
2022-10-22T13:35:13.773Z,10616.00
2022-10-22T13:36:13.760Z,8300.00
2022-10-22T13:40:55.189Z,12000.00
2022-10-22T13:41:55.120Z,13880.00
2022-10-22T13:42:55.113Z,14296.00
2022-10-22T13:43:55.074Z,12928.00
2022-10-22T13:44:55.060Z,11400.00
2022-10-22T13:45:55.055Z,7992.00
2022-10-22T13:46:42.057Z,10100.00
2022-10-22T13:47:42.054Z,10228.00
2022-10-22T13:48:42.015Z,23456.00
2022-10-22T13:49:41.998Z,29472.00
2022-10-22T13:50:41.984Z,28416.00
2022-10-22T13:51:41.969Z,31360.00
2022-10-22T13:52:42.248Z,31712.00
2022-10-22T13:53:41.952Z,31232.00
2022-10-22T13:54:41.930Z,31072.00
2022-10-22T13:55:41.927Z,31200.00
2022-10-22T13:56:41.903Z,32832.00
2022-10-22T13:57:41.906Z,17920.00
2022-10-22T13:58:41.875Z,31712.00
2022-10-22T13:59:41.864Z,31456.00
2022-10-22T14:00:41.887Z,10904.00
2022-10-22T14:01:40.915Z,20672.00
2022-10-22T14:02:41.251Z,28384.00
2022-10-22T14:03:40.886Z,17632.00
